Etusivu
METAR-TAF:

METAR-TAF

Lentoasemat :

Naval Outlying Landing Field Imperial Beach (Ream Field)

Imperial Beach, Kalifornia, Yhdysvallat

Leveyspiiri: 32-33-47N, Pituuspiiri: 117-06-36W, korkeus merenpinnasta: 7 m

Tämänhetkinen sää

Tämä raportti tehtiin 1 tunti ja 7 minuuttia sitten, kello 20.56 UTC
Tuuli 7 kn lännestä
Lämpötila 23°C
Kosteus 47%
Ilmanpaine 1014 hPa
Näkyvyys: 16.1 km
Muutamia pilviä 600 ft:n korkeudessa
Hajanaisia pilviä 25000 ft:n korkeudessa

METAR: KNRS 302056Z 27007KT 10SM FEW006 SCT250 23/11 A2995 RMK AO2 SLP142 T02280111 58019 $

Aika: 15:03 (22:03 UTC)


TAF: puuttuu

Säähavainnot ja -ennusteet yli 4000 lentoasemalta (METAR- ja TAF-raportit).

Käytössä olevat sääasemat on merkitty karttaan keltaisilla ja punaisilla pisteillä.

Aseta hiiri pisteen päälle nähdäksesi sääaseman nimen.

Klikkaa sitten nähdäksesi säähavainnot ja -ennusteet.

Kartan vaihtaminen: klikkaa mustalla rastilla varustettuja vihreitä pisteitä, niin voit zoomata sisään; viivalla varustettua vihreää pistettä, niin voit zoomata ulos tai vihreitä nuolia, niin pääset viereisille kartoille.


METAR-TAF: